Time;durP1;ratioP1;P1;durP2;ratioP2;P2;SDS_P1;SDS_P2;PMS_P1;PMS_P2;Temp;Humidity;BMP_temperature;BMP_pressure;BME280_temperature;BME280_humidity;BME280_pressure;Samples;Min_cycle;Max_cycle;Signal;HPM_P1;HPM_P2
2021/05/30 00:02:17;;;;;;;;;3.00;3.00;;;;;30.85;58.39;98674.97;4900360;29;8941;-72
2021/05/30 00:04:46;;;;;;;;;2.40;2.40;;;;;30.89;58.31;98675.72;4900289;29;8845;-73
2021/05/30 00:07:15;;;;;;;;;2.80;2.80;;;;;30.91;58.30;98678.81;4900282;29;8999;-72
2021/05/30 00:09:46;;;;;;;;;2.00;2.00;;;;;30.83;58.19;98677.31;4900131;29;8857;-72
2021/05/30 00:12:15;;;;;;;;;2.20;2.20;;;;;30.93;57.98;98694.75;4900442;29;8868;-73
2021/05/30 00:14:44;;;;;;;;;3.00;3.00;;;;;30.95;58.03;98695.09;4900867;29;8853;-72
2021/05/30 00:17:14;;;;;;;;;2.60;2.60;;;;;30.92;57.94;98695.91;4914301;29;8877;-72
2021/05/30 00:19:44;;;;;;;;;1.80;1.80;;;;;30.97;58.22;98698.97;4899092;29;8865;-72
2021/05/30 00:22:13;;;;;;;;;2.40;2.40;;;;;30.98;57.84;98689.63;4900004;29;9704;-72
2021/05/30 00:24:43;;;;;;;;;2.60;2.60;;;;;31.01;58.03;98697.00;4899995;29;8857;-72
2021/05/30 00:27:12;;;;;;;;;2.60;2.60;;;;;31.02;57.74;98701.25;4899913;29;8861;-72
2021/05/30 00:29:40;;;;;;;;;3.20;3.20;;;;;31.00;57.84;98698.16;4900159;29;8865;-72
2021/05/30 00:32:10;;;;;;;;;2.00;2.00;;;;;31.03;57.58;98707.47;4900039;29;8865;-73
2021/05/30 00:34:39;;;;;;;;;1.80;1.80;;;;;30.91;57.72;98686.97;4899814;29;8881;-72
2021/05/30 00:37:08;;;;;;;;;2.00;2.00;;;;;30.99;57.84;98702.06;4899730;29;9610;-72
2021/05/30 00:39:36;;;;;;;;;2.80;2.80;;;;;30.91;57.29;98684.25;4899758;29;8876;-72
2021/05/30 00:42:05;;;;;;;;;2.00;2.00;;;;;31.05;57.27;98703.19;4899692;29;8861;-72
2021/05/30 00:44:34;;;;;;;;;3.00;3.00;;;;;31.04;56.93;98698.91;4899635;29;8861;-72
2021/05/30 00:47:03;;;;;;;;;2.20;2.20;;;;;30.89;56.56;98672.22;4898676;29;8857;-72
2021/05/30 00:49:32;;;;;;;;;1.80;1.80;;;;;31.06;57.05;98699.28;4899588;29;8965;-73
2021/05/30 00:52:05;;;;;;;;;2.60;2.60;;;;;31.06;57.13;98693.81;4899781;29;9645;-72
2021/05/30 00:54:37;;;;;;;;;1.80;1.80;;;;;30.98;57.78;98688.84;4899488;29;8861;-72
2021/05/30 00:57:10;;;;;;;;;2.80;2.00;;;;;30.87;57.05;98686.22;4899431;29;8887;-73
2021/05/30 00:59:40;;;;;;;;;1.00;1.00;;;;;30.87;56.85;98686.22;4899375;29;8941;-72
2021/05/30 01:02:09;;;;;;;;;3.60;3.60;;;;;30.93;56.45;98702.91;4899321;29;8930;-73
2021/05/30 01:04:38;;;;;;;;;2.80;2.80;;;;;30.85;56.33;98680.41;4898606;29;8873;-73
2021/05/30 01:07:07;;;;;;;;;3.40;3.40;;;;;30.92;57.30;98698.63;4899245;29;8865;-73
2021/05/30 01:09:36;;;;;;;;;2.60;2.60;;;;;30.93;56.34;98711.09;4899280;29;8861;-73
2021/05/30 01:12:08;;;;;;;;;2.80;2.80;;;;;30.93;57.29;98702.91;4899595;29;8857;-72
2021/05/30 01:14:36;;;;;;;;;2.00;2.00;;;;;30.91;56.06;98711.47;4899376;29;9610;-73
2021/05/30 01:17:06;;;;;;;;;2.60;2.60;;;;;30.95;55.94;98717.66;4898844;29;8877;-73
2021/05/30 01:19:38;;;;;;;;;2.20;2.20;;;;;30.80;54.68;98697.19;4898984;29;8865;-72
2021/05/30 01:22:08;;;;;;;;;2.20;2.20;;;;;30.96;56.38;98724.66;4898988;29;8857;-72
2021/05/30 01:24:38;;;;;;;;;2.60;2.60;;;;;30.95;55.58;98727.78;4898973;29;8864;-72
2021/05/30 01:27:07;;;;;;;;;2.40;2.40;;;;;30.92;56.15;98728.59;4898878;29;8849;-72
2021/05/30 01:29:37;;;;;;;;;2.80;2.80;;;;;30.87;55.69;98729.03;4898609;29;8865;-72
2021/05/30 01:32:07;;;;;;;;;1.60;1.60;;;;;30.91;55.23;98729.78;4898504;29;8861;-72
2021/05/30 01:34:36;;;;;;;;;1.80;1.80;;;;;30.88;54.48;98727.84;4898689;29;8865;-72
2021/05/30 01:37:04;;;;;;;;;1.00;1.00;;;;;30.93;54.22;98739.09;4898702;29;8880;-73
2021/05/30 01:39:33;;;;;;;;;2.40;2.40;;;;;30.96;55.64;98735.56;4898843;29;8862;-72
2021/05/30 01:42:02;;;;;;;;;0.80;0.80;;;;;30.97;52.62;98737.13;4898685;29;8865;-72
2021/05/30 01:44:31;;;;;;;;;1.60;1.60;;;;;30.94;52.60;98731.69;4898477;29;8861;-72
2021/05/30 01:46:59;;;;;;;;;2.00;2.00;;;;;30.96;56.15;98732.06;4898644;29;8872;-72
2021/05/30 01:49:28;;;;;;;;;1.40;1.40;;;;;30.89;53.82;98724.72;4898428;29;8936;-72
2021/05/30 01:51:58;;;;;;;;;1.00;1.00;;;;;30.97;55.71;98728.16;4898324;29;8869;-72
2021/05/30 01:54:28;;;;;;;;;1.80;1.80;;;;;30.99;54.78;98733.97;4898402;29;8861;-72
2021/05/30 01:57:01;;;;;;;;;2.00;2.00;;;;;31.01;53.95;98728.91;4898311;29;8955;-72
2021/05/30 01:59:29;;;;;;;;;1.00;1.00;;;;;31.05;52.93;98724.19;4898299;29;8870;-72
2021/05/30 02:01:59;;;;;;;;;2.40;2.40;;;;;31.08;54.61;98729.63;4898319;29;8964;-72
2021/05/30 02:04:35;;;;;;;;;2.20;2.20;;;;;31.13;54.74;98725.69;4898326;29;8873;-72
2021/05/30 02:07:04;;;;;;;;;1.40;1.40;;;;;31.14;53.73;98721.81;4896591;29;8916;-72
2021/05/30 02:09:35;;;;;;;;;2.00;2.00;;;;;31.17;53.82;98718.28;4896536;29;8877;-72
2021/05/30 02:12:06;;;;;;;;;2.20;2.20;;;;;31.14;53.92;98710.91;4897115;29;9733;-74
2021/05/30 02:14:35;;;;;;;;;0.80;0.80;;;;;31.29;53.84;98725.13;4896816;29;8883;-72
2021/05/30 02:17:04;;;;;;;;;1.60;1.60;;;;;31.32;54.34;98722.38;4896289;29;8861;-74
2021/05/30 02:19:33;;;;;;;;;0.00;0.00;;;;;31.38;54.84;98719.97;4908192;29;8859;-76
2021/05/30 02:22:02;;;;;;;;;3.40;3.40;;;;;31.46;54.71;98726.88;4916014;29;8882;-72
2021/05/30 02:24:30;;;;;;;;;0.80;0.80;;;;;31.59;54.08;98721.69;4915619;29;8906;-72
2021/05/30 02:26:59;;;;;;;;;0.80;0.80;;;;;31.65;54.01;98730.97;4914971;29;8859;-72
2021/05/30 02:29:40;;;;;;;;;1.60;1.60;;;;;31.65;54.10;98711.88;4914348;29;8871;-71
2021/05/30 02:32:12;;;;;;;;;3.80;1.80;;;;;31.67;53.89;98717.69;4913997;29;8914;-72
2021/05/30 02:34:42;;;;;;;;;1.00;1.00;;;;;31.69;52.50;98713.41;4914753;29;8950;-71
2021/05/30 02:37:14;;;;;;;;;1.40;1.40;;;;;31.75;53.41;98725.41;4912600;29;9422;-73
2021/05/30 02:39:43;;;;;;;;;2.00;2.00;;;;;31.78;53.85;98716.41;4915566;29;8935;-73
2021/05/30 02:42:13;;;;;;;;;1.80;1.80;;;;;31.76;53.26;98705.13;4916113;29;8933;-73
2021/05/30 02:44:42;;;;;;;;;1.60;1.60;;;;;31.83;53.50;98717.13;4916034;29;8855;-74
2021/05/30 02:47:10;;;;;;;;;0.80;0.80;;;;;31.89;53.68;98710.03;4916027;29;8899;-73
2021/05/30 02:49:40;;;;;;;;;2.00;2.00;;;;;31.92;53.06;98714.66;4916298;29;8998;-74
2021/05/30 02:52:08;;;;;;;;;0.40;0.40;;;;;31.95;52.27;98716.56;4915354;29;8978;-76
2021/05/30 02:54:37;;;;;;;;;2.60;2.60;;;;;31.94;53.07;98702.16;4915604;29;8862;-73
2021/05/30 02:57:06;;;;;;;;;2.20;2.20;;;;;32.02;52.50;98711.78;4915555;29;8855;-75
2021/05/30 02:59:35;;;;;;;;;1.80;1.80;;;;;32.01;51.70;98696.59;4915868;29;8855;-78
2021/05/30 03:02:04;;;;;;;;;1.40;1.40;;;;;32.10;51.39;98702.31;4919100;29;8863;-76
2021/05/30 03:04:32;;;;;;;;;0.80;0.80;;;;;32.10;52.06;98696.09;4915003;29;8855;-76
2021/05/30 03:07:01;;;;;;;;;1.00;1.00;;;;;32.11;52.39;98692.97;4914991;29;8859;-76
2021/05/30 03:09:30;;;;;;;;;1.00;1.00;;;;;32.15;52.23;98697.59;4915760;29;8890;-75
2021/05/30 03:11:59;;;;;;;;;1.80;1.80;;;;;32.16;52.43;98691.72;4915348;29;8863;-76
2021/05/30 03:14:27;;;;;;;;;1.00;1.00;;;;;32.26;52.21;98693.53;4915425;29;8862;-74
2021/05/30 03:16:56;;;;;;;;;2.80;2.80;;;;;32.30;52.66;98696.22;4915672;29;8973;-75
2021/05/30 03:19:25;;;;;;;;;0.80;0.80;;;;;32.29;51.72;98681.81;4915627;29;8854;-75
2021/05/30 03:21:54;;;;;;;;;1.80;1.80;;;;;32.39;51.75;98689.06;4915507;29;8851;-74
2021/05/30 03:24:23;;;;;;;;;2.60;2.60;;;;;32.41;51.87;98678.50;4915340;29;8989;-75
2021/05/30 03:26:53;;;;;;;;;1.60;1.60;;;;;32.51;52.15;98675.97;4915089;29;8851;-75
2021/05/30 03:29:22;;;;;;;;;1.00;1.00;;;;;32.55;51.80;98671.22;4912077;29;8930;-75
2021/05/30 03:31:54;;;;;;;;;1.00;1.00;;;;;32.57;50.83;98672.34;4914977;29;8883;-74
2021/05/30 03:34:23;;;;;;;;;1.20;1.20;;;;;32.55;51.86;98660.31;4912045;29;8859;-74
2021/05/30 03:36:55;;;;;;;;;0.00;0.00;;;;;32.66;52.08;98672.59;4914512;29;8934;-75
2021/05/30 03:39:27;;;;;;;;;2.40;2.40;;;;;32.73;51.71;98677.16;4913922;29;8886;-76
2021/05/30 03:41:58;;;;;;;;;1.60;1.60;;;;;32.72;51.62;98668.19;4917368;29;8843;-76
2021/05/30 03:44:27;;;;;;;;;2.00;2.00;;;;;32.74;51.03;98665.03;4912606;29;8835;-75
2021/05/30 03:46:56;;;;;;;;;2.20;2.20;;;;;32.77;51.63;98669.72;4916257;29;8877;-76
2021/05/30 03:49:25;;;;;;;;;2.20;2.20;;;;;32.81;51.85;98664.19;4913022;29;8942;-75
2021/05/30 03:51:54;;;;;;;;;2.00;2.00;;;;;32.87;51.65;98665.25;4915693;29;8925;-75
2021/05/30 03:54:23;;;;;;;;;2.60;2.60;;;;;32.94;50.91;98656.91;4913091;29;8859;-77
2021/05/30 03:56:51;;;;;;;;;2.80;2.80;;;;;32.98;51.29;98661.13;4912248;29;8911;-75
2021/05/30 03:59:20;;;;;;;;;1.40;1.40;;;;;32.97;51.08;98656.06;4912999;29;8851;-76
2021/05/30 04:01:49;;;;;;;;;2.00;2.00;;;;;32.99;51.51;98659.16;4919265;29;8859;-77
2021/05/30 04:04:20;;;;;;;;;3.00;3.00;;;;;32.94;51.51;98654.94;4920713;29;8871;-74
2021/05/30 04:06:49;;;;;;;;;3.40;3.40;;;;;32.96;51.27;98649.06;4913996;29;8847;-75
2021/05/30 04:09:18;;;;;;;;;1.60;1.60;;;;;33.04;51.27;98651.25;4913580;29;8930;-75
2021/05/30 04:11:46;;;;;;;;;2.80;2.80;;;;;33.12;51.33;98651.13;4913523;29;8854;-78
2021/05/30 04:14:15;;;;;;;;;1.40;1.40;;;;;33.19;50.79;98649.00;4913330;29;8877;-75
2021/05/30 04:16:44;;;;;;;;;3.40;3.40;;;;;33.18;51.29;98642.00;4911943;29;9065;-73
2021/05/30 04:19:13;;;;;;;;;2.00;2.00;;;;;33.37;49.44;98657.66;4911920;29;8984;-71
2021/05/30 04:21:42;;;;;;;;;2.60;2.60;;;;;33.39;50.24;98646.31;4911217;29;8855;-73
2021/05/30 04:24:10;;;;;;;;;2.60;2.60;;;;;33.43;50.70;98646.22;4910984;29;8887;-73
2021/05/30 04:26:39;;;;;;;;;1.80;1.80;;;;;33.45;50.12;98649.31;4912904;29;8934;-73
2021/05/30 04:29:08;;;;;;;;;1.60;1.60;;;;;33.37;50.13;98632.28;4913372;29;8863;-72
2021/05/30 04:31:37;;;;;;;;;1.60;1.60;;;;;33.38;50.88;98628.34;4913340;29;8851;-72
2021/05/30 04:34:06;;;;;;;;;2.00;2.00;;;;;33.53;50.28;98645.25;4911397;29;8938;-73
2021/05/30 04:36:34;;;;;;;;;2.80;2.80;;;;;33.45;49.73;98620.00;4910839;29;8998;-72
2021/05/30 04:39:04;;;;;;;;;2.00;2.00;;;;;33.65;49.56;98642.63;4911347;29;8874;-73
2021/05/30 04:41:33;;;;;;;;;2.20;2.20;;;;;33.62;49.32;98626.28;4914052;29;8986;-72
2021/05/30 04:44:02;;;;;;;;;1.60;1.60;;;;;33.75;50.14;98651.03;4913351;29;8832;-73
2021/05/30 04:46:31;;;;;;;;;1.80;1.80;;;;;33.79;50.05;98646.25;4914917;29;8914;-72
2021/05/30 04:49:00;;;;;;;;;2.60;2.60;;;;;33.86;49.33;98635.91;4914865;29;8867;-73
2021/05/30 04:51:28;;;;;;;;;2.00;2.00;;;;;33.99;49.93;98642.25;4913178;29;8942;-72
2021/05/30 04:53:59;;;;;;;;;1.80;1.80;;;;;34.06;49.66;98629.59;4915709;29;8855;-73
2021/05/30 04:56:27;;;;;;;;;2.20;2.20;;;;;34.16;48.59;98634.06;4916336;29;8847;-73
2021/05/30 04:58:56;;;;;;;;;2.80;2.80;;;;;34.23;49.06;98620.19;4914873;29;8843;-72
2021/05/30 05:01:25;;;;;;;;;1.60;1.60;;;;;34.30;49.18;98620.00;4912795;29;8946;-74
2021/05/30 05:03:53;;;;;;;;;2.60;2.60;;;;;34.37;48.53;98627.31;4913690;29;8863;-74
2021/05/30 05:06:22;;;;;;;;;2.80;2.80;;;;;34.27;48.63;98602.47;4915342;29;8870;-74
2021/05/30 05:08:53;;;;;;;;;5.40;5.40;;;;;34.43;48.41;98611.91;4913525;29;8898;-74
2021/05/30 05:11:24;;;;;;;;;2.80;2.80;;;;;34.49;49.63;98610.94;4914024;29;8877;-75
2021/05/30 05:13:54;;;;;;;;;4.80;4.80;;;;;34.46;49.11;98616.53;4914724;29;8855;-75
2021/05/30 05:16:23;;;;;;;;;4.20;4.20;;;;;34.44;48.68;98616.94;4915517;29;8914;-74
2021/05/30 05:18:52;;;;;;;;;3.20;3.20;;;;;34.37;48.84;98602.66;4913861;29;8875;-73
2021/05/30 05:21:21;;;;;;;;;3.00;3.00;;;;;34.38;48.64;98598.72;4916061;29;8879;-74
2021/05/30 05:23:50;;;;;;;;;2.00;2.00;;;;;34.31;48.88;98592.22;4915846;29;8859;-74
2021/05/30 05:26:18;;;;;;;;;2.60;2.60;;;;;34.38;49.01;98593.25;4916246;29;8863;-73
2021/05/30 05:28:48;;;;;;;;;2.80;2.80;;;;;34.41;48.81;98597.88;4916405;29;8900;-73
2021/05/30 05:31:16;;;;;;;;;4.20;4.20;;;;;34.37;48.76;98587.00;4916685;29;8860;-72
2021/05/30 05:33:45;;;;;;;;;2.40;2.40;;;;;34.49;48.32;98594.53;4916323;29;8847;-75
2021/05/30 05:36:16;;;;;;;;;3.80;3.80;;;;;34.62;48.55;98591.84;4914568;29;8859;-74
2021/05/30 05:38:45;;;;;;;;;3.00;3.00;;;;;34.67;48.04;98578.38;4915734;29;8831;-73
2021/05/30 05:41:14;;;;;;;;;3.00;3.00;;;;;34.81;47.13;98577.25;4913553;29;8870;-72
2021/05/30 05:43:43;;;;;;;;;4.00;4.00;;;;;34.97;47.82;98579.94;4915591;29;8848;-72
2021/05/30 05:46:12;;;;;;;;;24.00;24.00;;;;;35.05;46.72;98569.53;4915248;29;8867;-73
2021/05/30 05:48:41;;;;;;;;;4.00;4.00;;;;;35.25;47.21;98561.09;4915635;29;8871;-73
2021/05/30 05:51:10;;;;;;;;;4.40;4.40;;;;;35.35;46.74;98562.00;4913192;29;8889;-72
2021/05/30 05:53:39;;;;;;;;;4.00;4.00;;;;;35.47;46.45;98562.03;4915384;29;8870;-75
2021/05/30 05:56:08;;;;;;;;;1.80;1.80;;;;;35.60;45.22;98564.78;4916175;29;8878;-72
2021/05/30 05:58:37;;;;;;;;;3.20;3.20;;;;;35.59;46.71;98549.50;4915660;29;9609;-75
2021/05/30 06:01:05;;;;;;;;;3.00;3.00;;;;;35.56;46.63;98539.41;4915011;29;8839;-74
2021/05/30 06:03:34;;;;;;;;;2.00;2.00;;;;;35.70;46.73;98549.94;4915577;29;8836;-75
2021/05/30 06:06:04;;;;;;;;;2.00;2.00;;;;;35.82;46.43;98556.66;4916099;29;8863;-75
2021/05/30 06:08:33;;;;;;;;;2.00;2.00;;;;;35.84;46.83;98557.00;4913965;29;8840;-73
2021/05/30 06:11:02;;;;;;;;;3.00;3.00;;;;;35.82;46.06;98553.91;4914950;29;8871;-71
2021/05/30 06:13:31;;;;;;;;;32.50;31.00;;;;;35.79;46.27;98547.34;4913047;29;8914;-75
2021/05/30 06:16:05;;;;;;;;;5.20;5.20;;;;;35.76;46.38;98541.94;4915812;29;8851;-76
2021/05/30 06:18:35;;;;;;;;;5.00;5.00;;;;;35.77;45.35;98537.97;4915672;29;8870;-74
2021/05/30 06:21:04;;;;;;;;;2.40;2.40;;;;;35.79;45.43;98532.81;4915500;29;8855;-74
2021/05/30 06:23:32;;;;;;;;;1.00;1.00;;;;;35.74;46.46;98525.91;4913238;29;8855;-73
2021/05/30 06:26:01;;;;;;;;;2.00;2.00;;;;;35.76;46.58;98530.94;4915969;29;8893;-73
2021/05/30 06:28:30;;;;;;;;;0.80;0.80;;;;;35.68;46.87;98541.38;4913145;29;8858;-77
2021/05/30 06:30:58;;;;;;;;;0.60;0.60;;;;;35.47;46.12;98512.66;4915880;29;8859;-75
2021/05/30 06:33:27;;;;;;;;;1.80;1.80;;;;;35.48;46.59;98521.66;4915485;29;8839;-75
2021/05/30 06:35:56;;;;;;;;;1.80;1.80;;;;;35.30;47.37;98505.72;4915449;29;8851;-75
2021/05/30 06:38:25;;;;;;;;;2.00;2.00;;;;;35.33;47.98;98512.31;4915487;29;8865;-72
2021/05/30 06:40:55;;;;;;;;;2.20;2.20;;;;;35.36;46.99;98506.72;4913187;29;8889;-75
2021/05/30 06:43:24;;;;;;;;;1.00;1.00;;;;;35.38;46.56;98512.53;4915337;29;8954;-72
2021/05/30 06:45:53;;;;;;;;;2.00;2.00;;;;;35.39;46.06;98488.63;4915269;29;8929;-74
2021/05/30 06:48:22;;;;;;;;;3.00;3.00;;;;;35.45;46.65;98490.38;4915646;29;8965;-74
2021/05/30 06:53:39;;;;;;;;;1.40;1.40;;;;;35.51;47.01;98485.88;4914077;29;8835;-74
2021/05/30 06:56:07;;;;;;;;;1.80;1.80;;;;;35.53;46.90;98488.94;4917967;29;8850;-73
2021/05/30 06:58:36;;;;;;;;;2.40;2.40;;;;;35.62;46.94;98485.53;4913861;29;8867;-73
2021/05/30 07:01:06;;;;;;;;;1.40;1.40;;;;;35.57;46.12;98461.38;4914040;29;8854;-75
2021/05/30 07:03:35;;;;;;;;;1.80;1.80;;;;;35.75;45.33;98477.28;4912868;29;8847;-72
2021/05/30 07:06:05;;;;;;;;;1.00;1.00;;;;;35.84;45.68;98475.41;4913179;29;8867;-74
2021/05/30 07:08:34;;;;;;;;;1.00;1.00;;;;;35.94;45.80;98470.78;4914153;29;8881;-74
2021/05/30 07:11:03;;;;;;;;;1.80;1.80;;;;;36.05;46.07;98468.44;4913681;29;8867;-74
2021/05/30 07:13:35;;;;;;;;;1.20;1.20;;;;;36.16;44.87;98463.34;4915050;29;8880;-75
2021/05/30 07:16:04;;;;;;;;;0.60;0.60;;;;;36.37;43.94;98463.84;4914600;29;8889;-74
2021/05/30 07:18:33;;;;;;;;;1.80;1.80;;;;;36.49;43.97;98454.72;4913440;29;8855;-75
2021/05/30 07:21:03;;;;;;;;;2.00;2.00;;;;;36.65;45.02;98460.00;4913160;29;8840;-74
2021/05/30 07:23:32;;;;;;;;;1.20;1.20;;;;;36.71;44.50;98452.72;4913896;29;8850;-76
2021/05/30 07:26:01;;;;;;;;;0.80;0.80;;;;;36.72;43.51;98446.00;4912320;29;8942;-73
2021/05/30 07:28:30;;;;;;;;;0.60;0.60;;;;;36.74;43.94;98440.84;4912567;29;8958;-73
2021/05/30 07:31:00;;;;;;;;;1.00;1.00;;;;;36.73;44.05;98436.56;4913157;29;8934;-71
2021/05/30 07:33:28;;;;;;;;;1.00;1.00;;;;;36.71;43.91;98438.97;4910899;29;8862;-74
2021/05/30 07:35:57;;;;;;;;;1.60;1.60;;;;;36.72;45.13;98442.50;4912053;29;8901;-73
2021/05/30 07:38:26;;;;;;;;;1.60;1.60;;;;;36.73;44.31;98431.06;4913030;29;8844;-73
2021/05/30 07:40:55;;;;;;;;;0.20;0.20;;;;;36.81;44.79;98428.81;4913106;29;8932;-73
2021/05/30 07:43:24;;;;;;;;;1.00;1.00;;;;;36.84;43.71;98430.69;4912497;29;8979;-74
2021/05/30 07:45:53;;;;;;;;;2.60;2.60;;;;;36.80;42.99;98424.53;4913030;29;9588;-73
2021/05/30 07:48:23;;;;;;;;;1.80;1.80;;;;;36.80;43.85;98430.03;4913079;29;8867;-73
2021/05/30 07:50:54;;;;;;;;;0.60;0.60;;;;;36.83;43.12;98420.91;4912502;29;8886;-74
2021/05/30 07:53:23;;;;;;;;;1.20;1.20;;;;;36.85;43.99;98416.47;4911894;29;8903;-75
2021/05/30 07:55:51;;;;;;;;;2.40;2.40;;;;;36.88;43.49;98401.81;4911565;29;8907;-74
2021/05/30 07:58:20;;;;;;;;;1.00;1.00;;;;;36.94;43.65;98402.00;4912108;29;9669;-73
2021/05/30 08:00:49;;;;;;;;;1.80;1.80;;;;;37.01;43.81;98412.72;4912222;29;8942;-73
2021/05/30 08:03:18;;;;;;;;;1.60;1.60;;;;;36.99;40.99;98408.91;4912218;29;8863;-74
2021/05/30 08:05:47;;;;;;;;;1.00;1.00;;;;;36.98;42.67;98393.63;4911729;29;8863;-74
2021/05/30 08:08:17;;;;;;;;;1.20;1.20;;;;;36.97;42.85;98395.59;4912177;29;8855;-74
2021/05/30 08:10:46;;;;;;;;;0.40;0.40;;;;;37.02;43.86;98394.25;4912329;29;8942;-74
2021/05/30 08:13:16;;;;;;;;;0.80;0.80;;;;;37.08;43.81;98389.69;4910925;29;8960;-74
2021/05/30 08:15:45;;;;;;;;;1.20;1.20;;;;;37.15;43.92;98383.91;4915792;29;8851;-74
2021/05/30 08:18:14;;;;;;;;;0.40;0.40;;;;;37.18;43.28;98382.97;4912360;29;8867;-74
2021/05/30 08:20:45;;;;;;;;;1.00;1.00;;;;;37.23;43.32;98377.69;4915856;29;8966;-72
2021/05/30 08:23:14;;;;;;;;;0.00;0.00;;;;;37.20;42.65;98366.78;4915776;29;8866;-71
2021/05/30 08:25:43;;;;;;;;;1.40;1.40;;;;;37.23;44.47;98366.69;4914893;29;8898;-72
2021/05/30 08:28:11;;;;;;;;;1.00;1.00;;;;;37.29;42.79;98366.84;4914593;29;8910;-72
2021/05/30 08:30:41;;;;;;;;;0.20;0.20;;;;;37.28;42.45;98356.28;4914960;29;8882;-72
2021/05/30 08:38:33;;;;;;;;;0.60;0.60;;;;;37.38;43.78;98346.84;5229055;23;8867;-78
2021/05/30 08:41:05;;;;;;;;;0.60;0.60;;;;;37.13;41.38;98325.81;4925757;29;8863;-76
2021/05/30 08:43:37;;;;;;;;;1.00;1.00;;;;;37.19;42.83;98344.03;4926155;29;8871;-77
2021/05/30 08:46:05;;;;;;;;;1.60;1.60;;;;;36.87;43.02;98290.34;4923842;29;8882;-77
2021/05/30 08:48:35;;;;;;;;;1.80;1.80;;;;;37.10;42.29;98335.00;4920257;29;8863;-76
2021/05/30 08:51:05;;;;;;;;;0.80;0.80;;;;;37.12;43.54;98322.31;4918223;29;8875;-76
2021/05/30 08:53:39;;;;;;;;;2.00;2.00;;;;;37.14;43.44;98322.63;4914764;29;8991;-76
2021/05/30 08:56:10;;;;;;;;;1.00;1.00;;;;;37.15;42.40;98323.38;4912252;29;8878;-77
2021/05/30 08:58:43;;;;;;;;;0.20;0.20;;;;;37.06;42.89;98313.13;4927055;29;9658;-77
2021/05/30 09:01:21;;;;;;;;;2.40;2.40;;;;;37.11;43.01;98317.28;4924746;29;8878;-77
2021/05/30 09:03:54;;;;;;;;;0.60;0.60;;;;;37.13;42.16;98306.56;4913362;29;8942;-76
2021/05/30 09:06:23;;;;;;;;;1.80;1.80;;;;;37.16;42.87;98306.44;4914284;29;8941;-74
2021/05/30 09:08:53;;;;;;;;;1.20;1.20;;;;;37.19;42.75;98299.25;4914632;29;8859;-79
2021/05/30 09:11:36;;;;;;;;;0.80;0.80;;;;;37.26;43.32;98307.22;4914061;29;8893;-76
2021/05/30 09:14:09;;;;;;;;;0.80;0.80;;;;;37.29;43.96;98300.81;4913685;29;8855;-76
2021/05/30 09:16:53;;;;;;;;;0.60;0.60;;;;;37.29;43.65;98298.06;4914983;29;8855;-76
2021/05/30 09:19:37;;;;;;;;;2.20;2.20;;;;;37.28;42.88;98296.53;4916577;29;8878;-74
2021/05/30 09:22:31;;;;;;;;;3.00;3.00;;;;;37.28;43.28;98301.28;4914432;29;8882;-76
2021/05/30 09:25:01;;;;;;;;;3.20;3.20;;;;;37.29;43.21;98295.31;4915105;29;8866;-75
2021/05/30 09:27:34;;;;;;;;;3.20;3.20;;;;;37.31;44.02;98289.34;4916150;29;8855;-74
2021/05/30 09:30:27;;;;;;;;;3.40;3.40;;;;;37.36;42.89;98291.50;4916201;29;8969;-76
2021/05/30 09:33:13;;;;;;;;;3.00;3.00;;;;;37.41;42.74;98293.63;4915430;29;8851;-75
2021/05/30 09:35:46;;;;;;;;;2.60;2.60;;;;;37.47;43.22;98287.06;4916903;29;8847;-77
2021/05/30 09:38:33;;;;;;;;;3.00;3.00;;;;;37.49;42.87;98300.38;4916234;29;8893;-74
2021/05/30 09:41:07;;;;;;;;;3.20;3.20;;;;;37.46;43.07;98285.53;4922022;29;8885;-74
2021/05/30 09:43:55;;;;;;;;;2.60;2.60;;;;;37.39;42.56;98287.84;4915195;29;8847;-75
2021/05/30 09:46:32;;;;;;;;;3.60;3.60;;;;;37.30;42.64;98285.84;4917564;29;8922;-74
2021/05/30 09:49:02;;;;;;;;;1.60;1.60;;;;;37.24;43.46;98287.69;4916720;29;8871;-77
2021/05/30 09:51:39;;;;;;;;;2.80;2.80;;;;;37.20;43.92;98287.78;4917238;29;8859;-77
2021/05/30 09:54:13;;;;;;;;;1.80;1.80;;;;;37.13;43.51;98281.81;4919492;29;8879;-76
2021/05/30 09:56:47;;;;;;;;;2.80;2.80;;;;;37.12;43.55;98285.81;4914046;29;8930;-76
2021/05/30 09:59:19;;;;;;;;;3.00;3.00;;;;;37.05;44.80;98292.34;4918821;29;8859;-77
2021/05/30 10:01:50;;;;;;;;;1.60;1.60;;;;;36.97;43.62;98290.34;4921650;29;8889;-77
2021/05/30 10:04:23;;;;;;;;;2.00;2.00;;;;;36.90;44.16;98288.66;4919510;29;8909;-77
2021/05/30 10:06:55;;;;;;;;;2.40;2.40;;;;;36.85;43.38;98284.53;4918573;29;8889;-78
2021/05/30 10:09:26;;;;;;;;;2.00;2.00;;;;;36.82;44.05;98285.44;4917756;29;8863;-77
2021/05/30 10:11:56;;;;;;;;;3.80;2.20;;;;;36.81;45.27;98285.88;4918079;29;8898;-78
2021/05/30 10:14:26;;;;;;;;;2.80;2.80;;;;;36.75;44.23;98282.97;4916421;29;9279;-78
2021/05/30 10:16:55;;;;;;;;;1.80;1.80;;;;;36.71;43.75;98287.81;4915989;29;8942;-77
2021/05/30 10:19:39;;;;;;;;;1.80;1.80;;;;;36.70;43.37;98291.03;4915813;29;8867;-78
2021/05/30 10:22:09;;;;;;;;;2.00;2.00;;;;;36.63;44.30;98286.56;4917893;29;8902;-78
2021/05/30 10:24:43;;;;;;;;;1.80;1.80;;;;;36.60;45.02;98287.47;4924484;29;8858;-79
2021/05/30 10:27:18;;;;;;;;;1.80;1.80;;;;;36.55;44.33;98293.56;4920869;29;8981;-78
2021/05/30 10:30:13;;;;;;;;;1.80;1.80;;;;;36.52;44.40;98292.50;4919798;29;8878;-78
2021/05/30 10:32:47;;;;;;;;;2.00;2.00;;;;;36.46;44.26;98285.28;4924857;29;8882;-79
2021/05/30 10:35:26;;;;;;;;;2.00;2.00;;;;;36.38;44.77;98286.81;4918401;29;8889;-80
2021/05/30 10:38:09;;;;;;;;;2.00;2.00;;;;;36.37;45.14;98293.53;4916604;29;8906;-78
2021/05/30 10:40:41;;;;;;;;;3.00;3.00;;;;;36.35;44.63;98293.22;4914996;29;8905;-76
2021/05/30 10:43:10;;;;;;;;;0.80;0.80;;;;;36.30;45.57;98288.31;4921559;29;8875;-77
2021/05/30 10:45:42;;;;;;;;;2.00;2.00;;;;;36.23;45.32;98287.31;4921193;29;8855;-76
2021/05/30 10:48:14;;;;;;;;;2.40;2.40;;;;;36.18;44.59;98284.41;4927999;29;8867;-78
2021/05/30 10:53:46;;;;;;;;;4.00;3.00;;;;;36.04;44.78;98284.94;4926186;29;8910;-77
2021/05/30 10:56:33;;;;;;;;;1.40;1.40;;;;;36.02;44.59;98290.88;4920720;29;8871;-76
2021/05/30 10:59:05;;;;;;;;;0.80;0.80;;;;;35.98;44.03;98292.22;4922647;29;8945;-77
2021/05/30 11:01:41;;;;;;;;;1.80;1.80;;;;;35.94;45.26;98295.84;4918576;29;8875;-76
2021/05/30 11:04:25;;;;;;;;;1.00;1.00;;;;;35.89;44.84;98301.91;4919047;29;8867;-78
2021/05/30 11:07:05;;;;;;;;;2.00;2.00;;;;;35.82;45.35;98291.19;4918167;29;8878;-78
2021/05/30 11:09:51;;;;;;;;;2.20;2.20;;;;;35.76;45.59;98292.19;4917625;29;8875;-77
2021/05/30 11:12:47;;;;;;;;;1.80;1.80;;;;;35.67;44.88;98295.63;4915314;29;8929;-76
2021/05/30 11:15:23;;;;;;;;;2.00;2.00;;;;;35.59;45.27;98288.88;4916547;29;8859;-77
2021/05/30 11:17:56;;;;;;;;;1.60;1.60;;;;;35.53;45.60;98291.41;4913701;29;9001;-77
2021/05/30 11:20:45;;;;;;;;;3.20;3.20;;;;;35.47;45.70;98293.19;4914690;29;9027;-79
2021/05/30 11:23:18;;;;;;;;;2.60;2.60;;;;;35.42;46.06;98295.75;4913843;29;8867;-77
2021/05/30 11:25:55;;;;;;;;;2.80;2.80;;;;;35.33;45.78;98288.19;4911253;29;8906;-77
2021/05/30 11:28:26;;;;;;;;;2.60;2.60;;;;;35.28;46.59;98286.00;4909307;29;8881;-77
2021/05/30 11:31:07;;;;;;;;;2.00;2.00;;;;;35.25;46.72;98295.88;4910283;29;8946;-74
2021/05/30 11:33:40;;;;;;;;;2.60;2.60;;;;;35.13;46.10;98284.94;4910221;29;8847;-75
2021/05/30 11:36:25;;;;;;;;;3.20;3.20;;;;;35.13;45.92;98301.38;4908510;29;8882;-74
2021/05/30 11:38:59;;;;;;;;;3.60;3.60;;;;;35.08;46.87;98300.00;4909615;29;9719;-75
2021/05/30 11:41:32;;;;;;;;;2.20;2.20;;;;;35.03;46.61;98308.03;4908761;29;8890;-74
2021/05/30 11:44:09;;;;;;;;;2.60;2.60;;;;;34.95;46.61;98300.03;4908911;29;8886;-75
2021/05/30 11:46:59;;;;;;;;;3.60;3.60;;;;;34.88;46.33;98300.25;4911783;29;8883;-75
2021/05/30 11:49:32;;;;;;;;;3.00;3.00;;;;;34.80;46.58;98304.41;4915438;29;8878;-75
2021/05/30 11:52:14;;;;;;;;;3.60;3.60;;;;;34.74;46.92;98297.16;4916385;29;9009;-74
2021/05/30 11:54:48;;;;;;;;;3.80;3.80;;;;;34.71;46.33;98304.28;4918286;29;8870;-74
2021/05/30 11:57:22;;;;;;;;;4.80;4.80;;;;;34.65;46.48;98300.56;4915974;29;8883;-75
2021/05/30 11:59:58;;;;;;;;;3.20;3.20;;;;;34.59;46.49;98305.06;4914120;29;8886;-74
2021/05/30 12:02:33;;;;;;;;;7.60;7.60;;;;;34.53;46.66;98298.59;4913411;29;8975;-76
2021/05/30 12:05:08;;;;;;;;;5.60;5.20;;;;;34.48;47.27;98296.41;4911859;29;8887;-76
2021/05/30 12:07:38;;;;;;;;;6.80;6.80;;;;;34.29;47.40;98276.22;4916206;29;8873;-77
2021/05/30 12:10:09;;;;;;;;;7.80;7.80;;;;;34.41;47.29;98297.41;4915270;29;8871;-76
2021/05/30 12:12:43;;;;;;;;;8.80;8.80;;;;;34.32;46.97;98295.31;4914333;29;8886;-76